createdAt,value
2023-04-03T00:01:39.664Z,1.14
2023-04-03T00:05:47.463Z,1.09
2023-04-03T00:09:55.156Z,1.05
2023-04-03T00:14:03.932Z,1.07
2023-04-03T00:18:12.429Z,1.07
2023-04-03T00:22:20.118Z,1.02
2023-04-03T00:26:27.909Z,0.98
2023-04-03T00:30:37.398Z,0.98
2023-04-03T00:34:46.342Z,0.95
2023-04-03T00:38:53.940Z,0.87
2023-04-03T00:43:02.771Z,0.80
2023-04-03T00:47:13.234Z,0.76
2023-04-03T00:51:25.583Z,0.69
2023-04-03T00:55:34.152Z,0.63
2023-04-03T00:59:45.850Z,0.57
2023-04-03T01:03:54.609Z,0.57
2023-04-03T01:08:02.966Z,0.56
2023-04-03T01:12:21.990Z,0.50
2023-04-03T01:16:31.519Z,0.46
2023-04-03T01:25:34.133Z,0.52
2023-04-03T01:29:44.613Z,0.50
2023-04-03T01:33:53.196Z,0.48
2023-04-03T01:38:00.726Z,0.51
2023-04-03T01:42:08.909Z,0.51
2023-04-03T01:46:16.777Z,0.48
2023-04-03T01:50:24.855Z,0.49
2023-04-03T01:54:32.731Z,0.48
2023-04-03T01:58:40.624Z,0.46
2023-04-03T02:02:48.455Z,0.43
2023-04-03T02:06:56.184Z,0.41
2023-04-03T02:11:03.775Z,0.37
2023-04-03T02:15:13.070Z,0.30
2023-04-03T02:19:20.897Z,0.28
2023-04-03T02:23:28.733Z,0.21
2023-04-03T02:27:36.591Z,0.15
2023-04-03T02:31:44.680Z,0.11
2023-04-03T02:35:56.895Z,0.05
2023-04-03T02:40:05.027Z,-0.01
2023-04-03T02:44:14.186Z,-0.05
2023-04-03T02:48:21.995Z,-0.06
2023-04-03T02:52:29.917Z,-0.10
2023-04-03T02:56:38.221Z,-0.12
2023-04-03T03:00:45.935Z,-0.12
2023-04-03T03:04:53.865Z,-0.16
2023-04-03T03:09:01.451Z,-0.19
2023-04-03T03:13:09.987Z,-0.17
2023-04-03T03:17:17.693Z,-0.17
2023-04-03T03:21:25.149Z,-0.19
2023-04-03T03:25:33.355Z,-0.19
2023-04-03T03:29:41.370Z,-0.22
2023-04-03T03:33:49.043Z,-0.27
2023-04-03T03:37:58.109Z,-0.27
2023-04-03T03:42:05.817Z,-0.27
2023-04-03T03:46:14.361Z,-0.32
2023-04-03T03:50:22.485Z,-0.37
2023-04-03T03:54:30.537Z,-0.40
2023-04-03T03:58:39.662Z,-0.44
2023-04-03T04:02:47.935Z,-0.48
2023-04-03T04:06:55.987Z,-0.53
2023-04-03T04:11:04.225Z,-0.55
2023-04-03T04:15:13.828Z,-0.57
2023-04-03T04:19:21.252Z,-0.59
2023-04-03T04:23:28.585Z,-0.63
2023-04-03T04:27:36.412Z,-0.68
2023-04-03T04:31:43.995Z,-0.70
2023-04-03T04:35:57.813Z,-0.70
2023-04-03T04:40:14.056Z,-0.66
2023-04-03T04:44:24.220Z,-0.65
2023-04-03T04:48:34.151Z,-0.67
2023-04-03T04:52:51.439Z,-0.70
2023-04-03T04:56:58.723Z,-0.72
2023-04-03T05:01:14.683Z,-0.71
2023-04-03T05:05:24.225Z,-0.69
2023-04-03T05:09:35.114Z,-0.69
2023-04-03T05:13:47.090Z,-0.72
2023-04-03T05:17:55.025Z,-0.71
2023-04-03T05:22:03.894Z,-0.66
2023-04-03T05:26:22.345Z,-0.64
2023-04-03T05:30:30.372Z,-0.57
2023-04-03T05:34:42.624Z,-0.49
2023-04-03T05:38:57.701Z,-0.43
2023-04-03T05:43:09.365Z,-0.37
2023-04-03T05:47:20.853Z,-0.26
2023-04-03T05:51:35.225Z,-0.18
2023-04-03T05:55:43.182Z,-0.15
2023-04-03T05:59:58.455Z,-0.10
2023-04-03T06:04:10.315Z,-0.03
2023-04-03T06:08:25.994Z,0.03
2023-04-03T06:12:36.282Z,0.14
2023-04-03T06:16:47.282Z,0.16
2023-04-03T06:20:59.236Z,0.14
2023-04-03T06:25:09.867Z,0.28
2023-04-03T06:29:18.015Z,0.36
2023-04-03T06:33:39.046Z,0.43
2023-04-03T06:37:58.999Z,0.54
2023-04-03T06:42:11.642Z,0.58
2023-04-03T06:46:22.294Z,0.70
2023-04-03T06:50:29.707Z,0.86
2023-04-03T06:54:39.823Z,1.14
2023-04-03T06:58:49.054Z,1.34
2023-04-03T07:02:58.446Z,1.32
2023-04-03T07:07:07.709Z,1.46
2023-04-03T07:11:21.305Z,1.57
2023-04-03T07:15:37.546Z,1.66
2023-04-03T07:19:50.127Z,1.57
2023-04-03T07:23:58.517Z,1.60
2023-04-03T07:28:06.273Z,1.68
2023-04-03T07:32:14.446Z,1.68
2023-04-03T07:36:24.061Z,1.60
2023-04-03T07:40:31.449Z,1.52
2023-04-03T07:44:38.882Z,1.60
2023-04-03T07:48:47.414Z,1.78
2023-04-03T07:52:58.907Z,1.98
2023-04-03T07:57:07.988Z,2.14
2023-04-03T08:01:15.337Z,2.27
2023-04-03T08:05:23.495Z,2.38
2023-04-03T08:09:31.610Z,2.47
2023-04-03T08:13:39.386Z,2.54
2023-04-03T08:17:48.313Z,2.39
2023-04-03T08:21:57.990Z,2.44
2023-04-03T08:26:11.646Z,2.34
2023-04-03T08:30:19.873Z,2.28
2023-04-03T08:34:27.383Z,2.29
2023-04-03T08:38:38.133Z,2.53
2023-04-03T08:42:54.233Z,2.88
2023-04-03T08:47:13.705Z,3.09
2023-04-03T08:51:23.729Z,3.11
2023-04-03T08:55:33.765Z,3.01
2023-04-03T08:59:44.047Z,2.95
2023-04-03T09:03:52.720Z,2.89
2023-04-03T09:08:06.500Z,2.89
2023-04-03T09:12:22.136Z,2.86
2023-04-03T09:16:45.795Z,2.95
2023-04-03T09:21:02.724Z,3.03
2023-04-03T09:25:16.561Z,3.04
2023-04-03T09:29:26.020Z,3.10
2023-04-03T09:33:34.660Z,3.16
2023-04-03T09:37:44.808Z,3.29
2023-04-03T09:42:04.487Z,3.31
2023-04-03T09:46:30.983Z,3.32
2023-04-03T09:50:41.349Z,3.39
2023-04-03T09:54:49.473Z,3.55
2023-04-03T09:59:15.952Z,3.53
2023-04-03T10:03:32.215Z,3.54
2023-04-03T10:07:46.537Z,3.64
2023-04-03T10:12:11.403Z,3.55
2023-04-03T10:16:22.599Z,3.55
2023-04-03T10:20:38.806Z,3.84
2023-04-03T10:24:53.188Z,3.94
2023-04-03T10:29:09.568Z,3.90
2023-04-03T10:33:30.015Z,4.16
2023-04-03T10:37:59.183Z,4.26
2023-04-03T10:42:17.246Z,4.12
2023-04-03T10:46:29.707Z,4.19
2023-04-03T10:50:45.590Z,4.50
2023-04-03T10:55:05.204Z,4.48
2023-04-03T10:59:23.513Z,4.26
2023-04-03T11:03:35.447Z,4.18
2023-04-03T11:07:45.619Z,4.22
2023-04-03T11:11:57.660Z,4.09
2023-04-03T11:16:09.724Z,4.10
2023-04-03T11:20:28.643Z,4.32
2023-04-03T11:24:41.407Z,4.57
2023-04-03T11:28:49.345Z,4.88
2023-04-03T11:33:11.661Z,4.93
2023-04-03T11:37:23.573Z,4.73
2023-04-03T11:41:33.139Z,4.55
2023-04-03T11:45:50.723Z,4.72
2023-04-03T11:50:05.045Z,4.73
2023-04-03T11:54:45.622Z,4.67
2023-04-03T11:59:25.761Z,4.76
2023-04-03T12:04:07.188Z,5.00
2023-04-03T12:08:28.731Z,4.91
2023-04-03T12:12:41.708Z,4.84
2023-04-03T12:16:52.474Z,4.77
2023-04-03T12:21:01.337Z,4.85
2023-04-03T12:25:51.027Z,4.97
2023-04-03T12:30:04.722Z,4.81
2023-04-03T12:34:23.936Z,4.64
2023-04-03T12:38:58.787Z,5.02
2023-04-03T12:43:25.797Z,5.50
2023-04-03T12:47:39.498Z,5.31
2023-04-03T12:51:48.984Z,5.12
2023-04-03T12:56:00.335Z,4.92
2023-04-03T13:00:36.688Z,5.01
2023-04-03T13:04:46.320Z,5.43
2023-04-03T13:08:58.417Z,5.93
2023-04-03T13:13:12.882Z,6.06
2023-04-03T13:17:21.377Z,5.79
2023-04-03T13:21:32.555Z,5.69
2023-04-03T13:25:43.019Z,5.87
2023-04-03T13:29:53.958Z,5.89
2023-04-03T13:34:07.424Z,5.72
2023-04-03T13:38:29.478Z,5.43
2023-04-03T13:42:41.673Z,5.21
2023-04-03T13:46:49.533Z,5.53
2023-04-03T13:51:02.019Z,5.90
2023-04-03T13:55:25.616Z,6.07
2023-04-03T13:59:39.164Z,5.71
2023-04-03T14:03:54.578Z,5.25
2023-04-03T14:08:03.210Z,5.36
2023-04-03T14:12:24.319Z,5.64
2023-04-03T14:16:46.345Z,5.44
2023-04-03T14:20:54.329Z,5.15
2023-04-03T14:25:03.176Z,5.02
2023-04-03T14:29:12.289Z,5.26
2023-04-03T14:33:22.440Z,5.28
2023-04-03T14:37:32.113Z,5.11
2023-04-03T14:41:39.902Z,5.03
2023-04-03T14:45:47.963Z,5.07
2023-04-03T14:49:55.956Z,5.19
2023-04-03T14:54:03.829Z,5.42
2023-04-03T14:58:13.650Z,5.31
2023-04-03T15:02:30.631Z,5.11
2023-04-03T15:06:39.269Z,4.90
2023-04-03T15:10:47.560Z,4.93
2023-04-03T15:15:01.737Z,5.18
2023-04-03T15:19:11.529Z,5.09
2023-04-03T15:23:20.173Z,4.94
2023-04-03T15:27:28.949Z,4.79
2023-04-03T15:31:37.085Z,4.68
2023-04-03T15:35:44.726Z,4.67
2023-04-03T15:39:52.381Z,4.68
2023-04-03T15:44:01.173Z,4.66
2023-04-03T15:48:09.551Z,4.60
2023-04-03T15:52:17.431Z,4.52
2023-04-03T15:56:25.398Z,4.44
2023-04-03T16:00:34.013Z,4.35
2023-04-03T16:04:41.789Z,4.31
2023-04-03T16:08:51.923Z,4.25
2023-04-03T16:12:59.805Z,4.18
2023-04-03T16:17:07.641Z,4.11
2023-04-03T16:21:16.402Z,4.06
2023-04-03T16:25:27.494Z,4.03
2023-04-03T16:29:36.251Z,3.97
2023-04-03T16:33:44.211Z,3.92
2023-04-03T16:37:52.608Z,3.90
2023-04-03T16:42:00.315Z,3.90
2023-04-03T16:46:08.056Z,3.88
2023-04-03T16:50:16.453Z,3.84
2023-04-03T16:54:24.562Z,3.82
2023-04-03T16:58:32.207Z,3.81
2023-04-03T17:02:41.239Z,3.79
2023-04-03T17:06:49.272Z,3.74
2023-04-03T17:10:57.218Z,3.71
2023-04-03T17:15:05.890Z,3.67
2023-04-03T17:19:14.600Z,3.64
2023-04-03T17:23:22.984Z,3.61
2023-04-03T17:27:31.774Z,3.54
2023-04-03T17:31:41.173Z,3.50
2023-04-03T17:35:49.020Z,3.45
2023-04-03T17:39:56.665Z,3.42
2023-04-03T17:44:04.602Z,3.39
2023-04-03T17:48:14.571Z,3.37
2023-04-03T17:52:25.479Z,3.35
2023-04-03T17:56:33.563Z,3.31
2023-04-03T18:00:41.659Z,3.29
2023-04-03T18:04:52.237Z,3.25
2023-04-03T18:09:07.239Z,3.19
2023-04-03T18:13:17.236Z,3.14
2023-04-03T18:17:27.149Z,3.10
2023-04-03T18:21:35.424Z,3.10
2023-04-03T18:25:43.350Z,3.07
2023-04-03T18:29:53.816Z,3.00
2023-04-03T18:34:03.235Z,2.94
2023-04-03T18:38:10.974Z,2.89
2023-04-03T18:42:20.285Z,2.83
2023-04-03T18:46:28.724Z,2.80
2023-04-03T18:50:37.737Z,2.78
2023-04-03T18:54:48.289Z,2.75
2023-04-03T18:58:56.441Z,2.73
2023-04-03T19:03:04.644Z,2.71
2023-04-03T19:07:12.986Z,2.69
2023-04-03T19:11:21.536Z,2.66
2023-04-03T19:15:29.866Z,2.62
2023-04-03T19:19:37.571Z,2.58
2023-04-03T19:23:48.781Z,2.55
2023-04-03T19:27:57.352Z,2.52
2023-04-03T19:32:04.763Z,2.50
2023-04-03T19:36:13.297Z,2.47
2023-04-03T19:40:22.117Z,2.46
2023-04-03T19:44:29.867Z,2.45
2023-04-03T19:48:38.937Z,2.42
2023-04-03T19:52:47.905Z,2.43
2023-04-03T19:56:58.143Z,2.40
2023-04-03T20:01:07.455Z,2.39
2023-04-03T20:05:15.057Z,2.37
2023-04-03T20:09:23.211Z,2.36
2023-04-03T20:13:31.775Z,2.33
2023-04-03T20:17:40.335Z,2.31
2023-04-03T20:21:48.527Z,2.30
2023-04-03T20:26:08.449Z,2.28
2023-04-03T20:30:18.130Z,2.26
2023-04-03T20:34:27.004Z,2.26
2023-04-03T20:38:34.709Z,2.23
2023-04-03T20:42:42.574Z,2.21
2023-04-03T20:46:53.285Z,2.21
2023-04-03T20:51:17.288Z,2.20
2023-04-03T20:55:25.401Z,2.18
2023-04-03T20:59:44.614Z,2.14
2023-04-03T21:04:08.790Z,2.12
2023-04-03T21:08:54.305Z,2.11
2023-04-03T21:13:49.212Z,2.16
2023-04-03T21:18:32.678Z,2.22
2023-04-03T21:22:43.774Z,2.26
2023-04-03T21:26:51.568Z,2.26
2023-04-03T21:30:59.246Z,2.23
2023-04-03T21:35:09.781Z,2.17
2023-04-03T21:39:18.353Z,2.12
2023-04-03T21:43:26.129Z,2.05
2023-04-03T21:47:35.817Z,2.01
2023-04-03T21:51:43.489Z,1.98
2023-04-03T21:56:02.970Z,1.94
2023-04-03T22:00:13.048Z,1.88
2023-04-03T22:04:21.807Z,1.83
2023-04-03T22:08:29.856Z,1.78
2023-04-03T22:12:37.565Z,1.72
2023-04-03T22:16:46.864Z,1.62
2023-04-03T22:20:55.238Z,1.55
2023-04-03T22:25:03.347Z,1.49
2023-04-03T22:29:10.824Z,1.46
2023-04-03T22:33:19.628Z,1.42
2023-04-03T22:37:29.320Z,1.34
2023-04-03T22:41:36.881Z,1.29
2023-04-03T22:45:51.499Z,1.26
2023-04-03T22:49:59.182Z,1.19
2023-04-03T22:54:07.343Z,1.13
2023-04-03T22:58:14.680Z,1.08
2023-04-03T23:02:21.895Z,1.04
2023-04-03T23:06:30.261Z,1.03
2023-04-03T23:10:38.330Z,1.02
2023-04-03T23:14:46.659Z,1.01
2023-04-03T23:18:54.140Z,0.99
2023-04-03T23:23:01.691Z,0.97
2023-04-03T23:27:09.114Z,0.97
2023-04-03T23:31:17.048Z,0.97
2023-04-03T23:35:24.882Z,0.96
2023-04-03T23:39:33.407Z,0.95
2023-04-03T23:43:43.986Z,0.95
2023-04-03T23:47:51.550Z,0.95
2023-04-03T23:51:59.576Z,0.93
2023-04-03T23:56:11.654Z,0.90
